logo
App data

Might & Magic Showdown

Store | Hub | SteamDB | Site
Developer: Ubisoft Montreal, Fun House Publisher: Ubisoft
Genre: RPG, Simulation, Strategy, Early Access
Languages: English, French, German, Polish, Russian, Simplified Chinese, Traditional Chinese
Tags: Early Access (37), Strategy (33), Simulation (22), RPG (21)
Category: Single-player, Online Multi-Player
Release date: Jan 19, 2017
Price: $19.99
Score rank: 97% Userscore: 63% Old userscore: 63%
Owners: 0 .. 20,000
Followers: 3,741

Steam Spy is still in beta, so expect major bugs.

Owners data:

Access restricted.

This feature is only available to users with special access rights. Sorry.

If you want to proceed, you need to register or log in first and then back Steam Spy on Patreon. Look for Indie or Pro pledge.

Don't forget to use the same email as on Steam Spy!

Audience in 2 weeks:

Access restricted.

This feature is only available to users with special access rights. Sorry.

If you want to proceed, you need to register or log in first and then back Steam Spy on Patreon. Look for Indie or Pro pledge.

Don't forget to use the same email as on Steam Spy!

Peak daily concurrent players:

CCU data courtesy of SteamDB. Used with permission.

Hourly concurrent players:

YouTube:

The views data is based on top 50 videos uploaded last week. Actual number of views might be more than the number shown.

The displayed number of videos uploaded yesterday is limited to 50, so if there were more videos uploaded, the number will still show 50.

If the game has commonly used word as its name (like "FEAR" or "Volume") its number of Youtube views might be wrong.

Games similar to this one:

# Game Release date
Price
Score rank
(Userscore / Metascore)
Owners
Players
Playtime (Median)
1 Showdown Adventure Sep 21, 2016 $2.99N/A (N/A)0 .. 20,0000%00:00 (00:00)
2 Alteric Jul 13, 2016 $3.99N/A (N/A)20,000 .. 50,0000%00:00 (00:00)
3 Intensive Exposure Sep 6, 2016 $4.99N/A (N/A)0 .. 20,0000%00:00 (00:00)
4 The Dark Legions Apr 1, 2004 $1.99N/A (N/A)0 .. 20,0000%00:00 (00:00)
5 It Comes Around - A Kinetic Novel Sep 29, 2016 $2.99N/A (N/A)20,000 .. 50,0000%00:00 (00:00)
6 WALLSLIDE Jul 14, 2016 $0.99N/A (N/A)20,000 .. 50,0000%00:00 (00:00)
7 Starship Annihilator Sep 2, 2016 $0.99N/A (N/A)100,000 .. 200,0000%00:00 (00:00)
8 Line/Dash Jul 11, 2016 $1.99N/A (N/A)0 .. 20,0000%00:00 (00:00)
9 The Gleam: VR Escape the Room Oct 14, 2016 $3.99N/A (N/A)100,000 .. 200,0000%00:00 (00:00)
10 Medieval Kingdom Wars Jan 3, 2019 $19.99N/A (N/A/60%)50,000 .. 100,0000%00:00 (00:00)
11 mr.President Prologue Episode Sep 20, 2016 $0.99N/A (N/A)50,000 .. 100,0000%00:00 (00:00)
12 Pixel Puzzles 2: RADical ROACH Aug 12, 2016 $9.99N/A (N/A)50,000 .. 100,0000%00:00 (00:00)
13 Dragon Kingdom War Feb 10, 2017 $4.99N/A (N/A)20,000 .. 50,0000%00:00 (00:00)
14 Aircraft War X Aug 5, 2016 $0.99N/A (N/A)200,000 .. 500,0000%00:00 (00:00)
15 Krampus Oct 18, 2016 $3.99N/A (N/A)100,000 .. 200,0000%00:00 (00:00)
16 Cubway Aug 11, 2016 $3.99N/A (N/A)50,000 .. 100,0000%00:00 (00:00)
17 Bohemian Killing Jul 21, 2016 $12.99N/A (N/A/55%)0 .. 20,0000%00:00 (00:00)
18 Nightfall: Escape Jun 26, 2016 $9.99N/A (N/A)0 .. 20,0000%00:00 (00:00)
19 Mysterious Space May 15, 2015 $10N/A (N/A)0 .. 20,0000%00:00 (00:00)
20 Luna Sky Oct 2, 2015 $12.99N/A (N/A)50,000 .. 100,0000%00:00 (00:00)
21 Treeker: The Lost Glasses May 13, 2015 $8.99N/A (N/A)0 .. 20,0000%00:00 (00:00)
22 Interstellar Rift Jun 23, 2015 $18.99N/A (N/A)20,000 .. 50,0000%00:00 (00:00)
23 Sparkle 2 Jun 1, 2015 $7.99N/A (N/A)20,000 .. 50,0000%00:00 (00:00)
24 Forget Me Not: My Organic Garden Aug 21, 2015 $1.99N/A (N/A)0 .. 20,0000%00:00 (00:00)
25 Warriors & Castles Jun 30, 2015 $2.99N/A (N/A)20,000 .. 50,0000%00:00 (00:00)
26 Lucius Demake Aug 8, 2016 $1.24N/A (N/A)20,000 .. 50,0000%00:00 (00:00)
27 Pizza Express Jun 25, 2015 $6.99N/A (N/A)20,000 .. 50,0000%00:00 (00:00)
28 Beeswing Dec 10, 2014 $4.99N/A (N/A)0 .. 20,0000%00:00 (00:00)
29 Taimumari Dec 16, 2015 $7.99N/A (N/A)100,000 .. 200,0000%00:00 (00:00)
30 Broken Bots Jun 7, 2016 $6.99N/A (N/A)0 .. 20,0000%00:00 (00:00)
31 The Adventures of Mr. Bobley Jun 30, 2015 $3.99N/A (N/A)50,000 .. 100,0000%00:00 (00:00)
32 Pixel Star May 22, 2015 $2.99N/A (N/A)20,000 .. 50,0000%00:00 (00:00)
33 Spellsworn Mar 13, 2018 FreeN/A (N/A)200,000 .. 500,0000%00:00 (00:00)
34 Tobari and the Night of the Curious Moon Aug 11, 2012 $9.99N/A (N/A)0 .. 20,0000%00:00 (00:00)
35 Child Phobia: Nightcoming Fears Dec 20, 2016 $1.99N/A (N/A)20,000 .. 50,0000%00:00 (00:00)
36 Koi Musubi Aug 28, 2016 $10.99N/A (N/A)0 .. 20,0000%00:00 (00:00)
37 Unalive Jan 5, 2017 N/AN/A (N/A)0 .. 20,0000%00:00 (00:00)
38 The face of hope: Underground Oct 24, 2016 $0.99N/A (N/A)100,000 .. 200,0000%00:00 (00:00)
39 Flame of Memory Dec 8, 2017 N/AN/A (N/A)100,000 .. 200,0000%00:00 (00:00)
40 Alwa's Awakening Feb 2, 2017 $9.99N/A (N/A/71%)0 .. 20,0000%00:00 (00:00)
41 Oh...Sir! The Hollywood Roast May 31, 2017 $3.99N/A (N/A)20,000 .. 50,0000%00:00 (00:00)
42 Absoloot Mar 15, 2017 $3.99N/A (N/A)200,000 .. 500,0000%00:00 (00:00)
43 Ninja Stealth 2 Jan 30, 2017 $0.49N/A (N/A)20,000 .. 50,0000%00:00 (00:00)
44 The Inner Darkness Feb 24, 2017 $4.99N/A (N/A)0 .. 20,0000%00:00 (00:00)
45 Mouse in Lab Feb 1, 2017 $0.99N/A (N/A)100,000 .. 200,0000%00:00 (00:00)
46 Introvert Quest Mar 15, 2017 $2.49N/A (N/A)100,000 .. 200,0000%00:00 (00:00)
47 Clone Drone in the Danger Zone Mar 16, 2017 $19.99N/A (N/A)100,000 .. 200,0000%00:00 (00:00)
48 Remain Dec 21, 2016 $3.99N/A (N/A)20,000 .. 50,0000%00:00 (00:00)
49 Veil of Crows Oct 18, 2018 $14.99N/A (N/A)0 .. 20,0000%00:00 (00:00)
50 Distant Space Dec 20, 2016 $0.99N/A (N/A)50,000 .. 100,0000%00:00 (00:00)
51 Feral Fury Apr 3, 2017 $6.99N/A (N/A)50,000 .. 100,0000%00:00 (00:00)
52 Western Press Apr 21, 2016 $4.99N/A (N/A)50,000 .. 100,0000%00:00 (00:00)
53 Fracture the Flag Dec 7, 2016 $4.99N/A (N/A)50,000 .. 100,0000%00:00 (00:00)
54 Clandestinity of Elsie Jul 8, 2015 $4.99N/A (N/A)20,000 .. 50,0000%00:00 (00:00)
55 iZBOT Sep 1, 2015 $11.99N/A (N/A)0 .. 20,0000%00:00 (00:00)
56 Orion Trail Oct 12, 2015 $7.99N/A (N/A)0 .. 20,0000%00:00 (00:00)
57 Sora Jan 5, 2016 $8.99N/A (N/A/74%)20,000 .. 50,0000%00:00 (00:00)
58 RETSNOM Jul 23, 2015 $4.99N/A (N/A)0 .. 20,0000%00:00 (00:00)
59 Redemption: Eternal Quest Aug 28, 2015 $1.99N/A (N/A)100,000 .. 200,0000%00:00 (00:00)
60 Painters Guild Sep 1, 2015 $9.99N/A (N/A)20,000 .. 50,0000%00:00 (00:00)
61 Angry Arrows Aug 12, 2015 $4.99N/A (N/A)20,000 .. 50,0000%00:00 (00:00)
62 Macabre Jul 6, 2015 $2.99N/A (N/A)20,000 .. 50,0000%00:00 (00:00)
63 Blaster Shooter GunGuy! Aug 10, 2015 $1.99N/A (N/A)100,000 .. 200,0000%00:00 (00:00)
64 none Nov 4, 2015 N/AN/A (N/A)20,000 .. 50,0000%00:00 (00:00)
65 Wayward Terran Frontier: Zero Falls Feb 11, 2016 $29.99N/A (N/A)0 .. 20,0000%00:00 (00:00)
66 Super Trench Attack 2 Nov 6, 2015 $4.99N/A (N/A)20,000 .. 50,0000%00:00 (00:00)
67 Monument Jun 5, 2015 $3.99N/A (N/A)20,000 .. 50,0000%00:00 (00:00)
68 A.I. Invasion Sep 30, 2015 $9.99N/A (N/A)0 .. 20,0000%00:00 (00:00)
69 Knytt Underground Oct 25, 2013 $6.99N/A (N/A)50,000 .. 100,0000%00:00 (00:00)
70 A-Men Jan 25, 2014 $9.99N/A (N/A)0 .. 20,0000%00:00 (00:00)
71 Omegalodon Mar 9, 2012 $9.99N/A (N/A)20,000 .. 50,0000%00:00 (00:00)
72 Imagine Me Mar 14, 2014 $2.99N/A (N/A)50,000 .. 100,0000%00:00 (00:00)
73 Gravity Ghost Jan 26, 2015 $14.99N/A (N/A/75%)20,000 .. 50,0000%00:00 (00:00)
74 Labyrinthine Dreams May 26, 2015 $1.99N/A (N/A)50,000 .. 100,0000%00:00 (00:00)
75 Constant C Mar 7, 2014 $9.99N/A (N/A/60%)20,000 .. 50,0000%00:00 (00:00)
76 Imagine Earth Apr 30, 2020 $19.99N/A (N/A)0 .. 20,0000%00:00 (00:00)
77 Solar Flux Oct 24, 2013 $9.99N/A (N/A)100,000 .. 200,0000%00:00 (00:00)
78 T.E.C. 3001 Apr 10, 2014 N/AN/A (N/A)20,000 .. 50,0000%00:00 (00:00)
79 Signal Ops Apr 2, 2013 $9.99N/A (N/A/61%)20,000 .. 50,0000%00:00 (00:00)
80 Rabbit Hole 3D: Steam Edition Apr 25, 2014 $2.99N/A (N/A)50,000 .. 100,0000%00:00 (00:00)
81 Journal Feb 17, 2014 $9.99N/A (N/A/59%)20,000 .. 50,0000%00:00 (00:00)
82 Autocraft Sep 20, 2017 $9.99N/A (N/A)20,000 .. 50,0000%00:00 (00:00)
83 Final Rush Jan 17, 2014 $4.99N/A (N/A)20,000 .. 50,0000%00:00 (00:00)
84 Poöf Nov 8, 2013 $6.99N/A (N/A)20,000 .. 50,0000%00:00 (00:00)
85 Full Bore May 6, 2014 $14.99N/A (N/A/72%)20,000 .. 50,0000%00:00 (00:00)
86 Dark Passenger Apr 26, 2017 $1.99N/A (N/A)0 .. 20,0000%00:00 (00:00)
87 Arcade Tale Mar 31, 2017 $0.99N/A (N/A)200,000 .. 500,0000%00:00 (00:00)
88 Mad Dagger Apr 1, 2017 $0.99N/A (N/A)100,000 .. 200,0000%00:00 (00:00)
89 The Franz Kafka Videogame Apr 6, 2017 $1.95N/A (N/A/64%)50,000 .. 100,0000%00:00 (00:00)
90 Morphine Oct 26, 2015 $2.99N/A (N/A)20,000 .. 50,0000%00:00 (00:00)
91 Shmadow Nov 3, 2015 $1.99N/A (N/A)20,000 .. 50,0000%00:00 (00:00)
92 BATTLECREW Space Pirates Jul 10, 2017 FreeN/A (N/A)100,000 .. 200,0000%00:00 (00:00)
93 Kitchen Simulator 2015 Sep 4, 2015 $0.99N/A (N/A)50,000 .. 100,0000%00:00 (00:00)
94 Days Under Custody Nov 23, 2015 $4.99N/A (N/A)20,000 .. 50,0000%00:00 (00:00)
95 ChargeShot Sep 18, 2015 $9.99N/A (N/A)20,000 .. 50,0000%00:00 (00:00)
96 Planet Diver Nov 30, 2015 $3.99N/A (N/A)0 .. 20,0000%00:00 (00:00)
97 Clergy Splode Sep 17, 2015 $0.49N/A (N/A)500,000 .. 1,000,0000%00:00 (00:00)
98 Cosmic Leap Mar 17, 2016 $0.99N/A (N/A)20,000 .. 50,0000%00:00 (00:00)
99 Club Life Apr 13, 2016 $11.99N/A (N/A)20,000 .. 50,0000%00:00 (00:00)
100 PERFECT ANGLE: The puzzle game based on optical illusions Dec 22, 2015 $9.99N/A (N/A)50,000 .. 100,0000%00:00 (00:00)
101 UTOPIA 9 - A Volatile Vacation May 5, 2016 $11.99N/A (N/A)0 .. 20,0000%00:00 (00:00)
102 TurnOn Jun 1, 2016 $14.99N/A (N/A/67%)20,000 .. 50,0000%00:00 (00:00)
103 Dream Factory Nov 2, 2015 $9.99N/A (N/A)0 .. 20,0000%00:00 (00:00)
104 Rogue Wizards Sep 27, 2016 $14.99N/A (N/A/67%)20,000 .. 50,0000%00:00 (00:00)
105 Perraw - FPS Clone War Alpha Jan 29, 2016 $0.99N/A (N/A)0 .. 20,0000%00:00 (00:00)
106 Glitchspace May 5, 2016 FreeN/A (N/A)20,000 .. 50,0000%00:00 (00:00)
107 Rhythm Destruction Jun 16, 2014 $4.99N/A (N/A)50,000 .. 100,0000%00:00 (00:00)
108 Vitrum Sep 25, 2012 $1.99N/A (N/A)20,000 .. 50,0000%00:00 (00:00)
109 Team Indie Oct 8, 2014 N/AN/A (N/A)50,000 .. 100,0000%00:00 (00:00)
110 Three Dead Zed Jul 7, 2014 $5.99N/A (N/A)50,000 .. 100,0000%00:00 (00:00)
111 TRISTOY Jan 15, 2015 $6.99N/A (N/A/49%)20,000 .. 50,0000%00:00 (00:00)
112 Chompy Chomp Chomp May 16, 2014 $1.99N/A (N/A)200,000 .. 500,0000%00:00 (00:00)
113 Oblitus Feb 27, 2015 $14.99N/A (N/A/69%)0 .. 20,0000%00:00 (00:00)
114 Road Not Taken Aug 5, 2014 $14.99N/A (N/A/75%)50,000 .. 100,0000%00:00 (00:00)
115 Iron Fisticle Sep 16, 2014 $0.89N/A (N/A)20,000 .. 50,0000%00:00 (00:00)
116 Millie Apr 3, 2014 $3.99N/A (N/A)100,000 .. 200,0000%00:00 (00:00)
117 Fancy Skulls Jun 16, 2014 $8.99N/A (N/A)50,000 .. 100,0000%00:00 (00:00)
118 Inescapable May 22, 2014 $4.99N/A (N/A)0 .. 20,0000%00:00 (00:00)
119 Curses 'N Chaos Aug 18, 2015 $9.99N/A (N/A)20,000 .. 50,0000%00:00 (00:00)
120 The Promised Land Jul 11, 2012 $6.99N/A (N/A)20,000 .. 50,0000%00:00 (00:00)
121 Ampu-Tea May 30, 2014 $4.99N/A (N/A)200,000 .. 500,0000%00:00 (00:00)
122 Rock Boshers DX: Directors Cut Dec 10, 2014 $6.99N/A (N/A)0 .. 20,0000%00:00 (00:00)
123 Rencounter Nov 4, 2016 $0.59N/A (N/A)20,000 .. 50,0000%00:00 (00:00)
124 Mindless Running Feb 22, 2016 $0.99N/A (N/A)50,000 .. 100,0000%00:00 (00:00)
125 Evertown Jan 30, 2020 $1.99N/A (N/A)0 .. 20,0000%00:00 (00:00)
126 Mimpi Dreams Mar 22, 2016 FreeN/A (N/A)20,000 .. 50,0000%00:00 (00:00)
127 Kitten Rampage Feb 3, 2016 $7.99N/A (N/A)20,000 .. 50,0000%00:00 (00:00)
128 Tasty Planet: Back for Seconds Mar 29, 2016 $5.99N/A (N/A)20,000 .. 50,0000%00:00 (00:00)
129 Flobe Jan 23, 2016 $0.99N/A (N/A)0 .. 20,0000%00:00 (00:00)
130 Bunker Punks May 28, 2018 $14.99N/A (N/A)0 .. 20,0000%00:00 (00:00)
131 10 Second Ninja X Jul 19, 2016 $0.99N/A (N/A)20,000 .. 50,0000%00:00 (00:00)
132 AMOK Mar 21, 2016 $0.99N/A (N/A)50,000 .. 100,0000%00:00 (00:00)
133 Binaries Apr 4, 2016 $0.99N/A (N/A)0 .. 20,0000%00:00 (00:00)
134 Share May 3, 2016 $0.99N/A (N/A)20,000 .. 50,0000%00:00 (00:00)
135 Tavern Tycoon - Dragon's Hangover Mar 11, 2019 $12.99N/A (N/A)20,000 .. 50,0000%00:00 (00:00)
136 Elements II: Hearts of Light Apr 1, 2016 N/AN/A (N/A)20,000 .. 50,0000%00:00 (00:00)
137 Atomik: RunGunJumpGun Aug 31, 2016 $7.99N/A (N/A/82%)20,000 .. 50,0000%00:00 (00:00)
138 Doodle Kingdom Jun 9, 2016 $8.99N/A (N/A)20,000 .. 50,0000%00:00 (00:00)
139 Chicku May 5, 2016 N/AN/A (N/A)0 .. 20,0000%00:00 (00:00)
140 Amazing Princess Sarah Aug 18, 2014 $4.99N/A (N/A)0 .. 20,0000%00:00 (00:00)
141 Gunmetal Arcadia Feb 7, 2017 $9.99N/A (N/A)0 .. 20,0000%00:00 (00:00)
142 The Waste Land Sep 16, 2014 $9.99N/A (N/A)0 .. 20,0000%00:00 (00:00)
143 Cherry Tree High I! My! Girls! Nov 20, 2014 $3.99N/A (N/A)20,000 .. 50,0000%00:00 (00:00)
144 Great Permutator Sep 15, 2014 $6.99N/A (N/A)20,000 .. 50,0000%00:00 (00:00)
145 A Druid's Duel Feb 25, 2015 $7.99N/A (N/A/70%)0 .. 20,0000%00:00 (00:00)
146 Ninja Pizza Girl Sep 30, 2015 $6.99N/A (N/A/82%)100,000 .. 200,0000%00:00 (00:00)
147 Chronicles of a Dark Lord: Episode 1 Tides of Fate Complete Dec 19, 2014 $0.99N/A (N/A)50,000 .. 100,0000%00:00 (00:00)
148 Oscura: Lost Light Feb 24, 2015 $6.99N/A (N/A/66%)20,000 .. 50,0000%00:00 (00:00)
149 Bermuda Mar 17, 2015 $2.99N/A (N/A)50,000 .. 100,0000%00:00 (00:00)
150 Disorder Jan 12, 2015 $3.99N/A (N/A/61%)0 .. 20,0000%00:00 (00:00)
151 Tomb of Tyrants Jun 25, 2015 $7.99N/A (N/A)20,000 .. 50,0000%00:00 (00:00)
152 iO Dec 5, 2014 $4.99N/A (N/A)50,000 .. 100,0000%00:00 (00:00)
153 Glorkian Warrior: The Trials Of Glork Mar 24, 2015 $3.99N/A (N/A)20,000 .. 50,0000%00:00 (00:00)
154 Super Life of Pixel Dec 20, 2018 $9.99N/A (N/A)20,000 .. 50,0000%00:00 (00:00)
155 OTTTD Aug 6, 2014 $7.99N/A (N/A)50,000 .. 100,0000%00:00 (00:00)
156 Tulpa Jan 29, 2015 $2.99N/A (N/A)50,000 .. 100,0000%00:00 (00:00)
157 Blaite Jan 2, 2017 $0.99N/A (N/A)100,000 .. 200,0000%00:00 (00:00)
158 Nanobots Mar 15, 2016 $3.99N/A (N/A)20,000 .. 50,0000%00:00 (00:00)
159 Moonstone Tavern - A Fantasy Tavern Sim! May 13, 2016 $7.99N/A (N/A)20,000 .. 50,0000%00:00 (00:00)
160 Yon Paradox May 6, 2016 $2.99N/A (N/A)0 .. 20,0000%00:00 (00:00)
161 Deathwave Jun 9, 2016 $4.99N/A (N/A)0 .. 20,0000%00:00 (00:00)
162 Amigdala Mar 28, 2016 $5.99N/A (N/A)20,000 .. 50,0000%00:00 (00:00)
163 Gal-X-E May 14, 2016 $1.99N/A (N/A)20,000 .. 50,0000%00:00 (00:00)
164 Cube Land Arena Mar 29, 2016 $0.99N/A (N/A)20,000 .. 50,0000%00:00 (00:00)
165 ORCS May 20, 2016 $1.99N/A (N/A)20,000 .. 50,0000%00:00 (00:00)
166 Rising Islands Aug 2, 2016 $9.99N/A (N/A)20,000 .. 50,0000%00:00 (00:00)
167 Amulet of Dreams Jun 3, 2016 $6.99N/A (N/A)0 .. 20,0000%00:00 (00:00)
168 MetaTron Dec 19, 2016 N/AN/A (N/A)0 .. 20,0000%00:00 (00:00)
169 Armed Against the Undead Jun 17, 2016 $19.99N/A (N/A)0 .. 20,0000%00:00 (00:00)
170 Emerge: Cities of the Apocalypse Apr 27, 2016 $7.99N/A (N/A)20,000 .. 50,0000%00:00 (00:00)
171 Fly O'Clock Jul 8, 2016 $0.99N/A (N/A)50,000 .. 100,0000%00:00 (00:00)
172 Blade Ballet Aug 9, 2016 $14.99N/A (N/A)0 .. 20,0000%00:00 (00:00)
173 Axes and Acres Apr 7, 2016 $9.99N/A (N/A)0 .. 20,0000%00:00 (00:00)
174 stratO Jun 1, 2015 $4.99N/A (N/A)0 .. 20,0000%00:00 (00:00)
175 An Octave Higher Mar 27, 2015 $2.39N/A (N/A)0 .. 20,0000%00:00 (00:00)
176 It came from space, and ate our brains Mar 19, 2015 $9.99N/A (N/A)50,000 .. 100,0000%00:00 (00:00)
177 Home is Where One Starts... May 12, 2015 $2.99N/A (N/A)20,000 .. 50,0000%00:00 (00:00)
178 Disillusions Manga Horror Apr 6, 2013 $0.99N/A (N/A)20,000 .. 50,0000%00:00 (00:00)
179 Orbit HD Mar 18, 2015 $0.99N/A (N/A)20,000 .. 50,0000%00:00 (00:00)
180 Three Fourths Home: Extended Edition Mar 20, 2015 $4.99N/A (N/A/77%)20,000 .. 50,0000%00:00 (00:00)
181 Big Action Mega Fight! Jan 12, 2016 $1.99N/A (N/A)20,000 .. 50,0000%00:00 (00:00)
182 Lumo May 24, 2016 $19.99N/A (N/A/77%)0 .. 20,0000%00:00 (00:00)
183 Gryphon Knight Epic Aug 20, 2015 $2.09N/A (N/A/55%)20,000 .. 50,0000%00:00 (00:00)
184 BlastZone 2 Feb 19, 2015 $9.99N/A (N/A)20,000 .. 50,0000%00:00 (00:00)
185 Canabalt Apr 30, 2015 $2.99N/A (N/A)20,000 .. 50,0000%00:00 (00:00)
186 The Undying Plague Apr 10, 2015 $0.99N/A (N/A)200,000 .. 500,0000%00:00 (00:00)
187 Hare In The Hat Apr 1, 2015 $1.99N/A (N/A)50,000 .. 100,0000%00:00 (00:00)
188 Scribble Space Jun 1, 2015 $1.99N/A (N/A)20,000 .. 50,0000%00:00 (00:00)
189 Countless Rooms of Death Feb 20, 2014 $0.99N/A (N/A)20,000 .. 50,0000%00:00 (00:00)
190 Finders Aug 15, 2013 $5.99N/A (N/A)0 .. 20,0000%00:00 (00:00)
191 Party of Sin Dec 13, 2012 $5.99N/A (N/A)50,000 .. 100,0000%00:00 (00:00)
192 Critter Crunch Sep 11, 2012 $6.99N/A (N/A)50,000 .. 100,0000%00:00 (00:00)
193 Cubemen 2 Apr 8, 2013 $7.99N/A (N/A/68%)100,000 .. 200,0000%00:00 (00:00)
194 Super Splatters Jun 26, 2013 N/AN/A (N/A/73%)100,000 .. 200,0000%00:00 (00:00)
195 MirrorMoon EP Sep 4, 2013 $14.99N/A (N/A/73%)100,000 .. 200,0000%00:00 (00:00)
196 Waves Nov 16, 2011 $4.99N/A (N/A/82%)100,000 .. 200,0000%00:00 (00:00)
197 Bad Hotel Oct 16, 2013 $4.99N/A (N/A)50,000 .. 100,0000%00:00 (00:00)
198 Really Big Sky Feb 24, 2012 $4.99N/A (N/A)500,000 .. 1,000,0000%00:00 (00:00)
199 Wake $4.99N/A (N/A)0 .. 20,0000%00:00 (00:00)
200 Titan Attacks! Feb 3, 2012 $9.99N/A (N/A)100,000 .. 200,0000%00:00 (00:00)
201 Zack Zero Apr 29, 2013 $2.99N/A (N/A)50,000 .. 100,0000%00:00 (00:00)
202 BIT.TRIP VOID Dec 19, 2012 $9.99N/A (N/A)20,000 .. 50,0000%00:00 (00:00)
203 Rush Bros. May 24, 2013 $9.99N/A (N/A)100,000 .. 200,0000%00:00 (00:00)
204 Unmechanical Aug 8, 2012 $9.99N/A (N/A/74%)100,000 .. 200,0000%00:00 (00:00)
205 Super Puzzle Platformer Deluxe May 24, 2013 $7.99N/A (N/A)50,000 .. 100,0000%00:00 (00:00)
206 Sugar Cube: Bittersweet Factory Nov 7, 2012 $6.99N/A (N/A)20,000 .. 50,0000%00:00 (00:00)
207 The Wonderful End of the World Jan 25, 2008 $9.99N/A (N/A/69%)100,000 .. 200,0000%00:00 (00:00)

Tags over time:

Access restricted.

This feature is only available to users with special access rights. Sorry.

If you want to proceed, you need to register or log in first and then back Steam Spy on Patreon. Look for Indie or Pro pledge.

Don't forget to use the same email as on Steam Spy!

Owners of this game also own:

Access restricted.

This feature is only available to users with special access rights. Sorry.

If you want to proceed, you need to register or log in first and then back Steam Spy on Patreon. Look for Indie or Pro pledge.

Don't forget to use the same email as on Steam Spy!

Playtime distribution:

Access restricted.

This feature is only available to users with special access rights. Sorry.

If you want to proceed, you need to register or log in first and then back Steam Spy on Patreon. Look for Indie or Pro pledge.

Don't forget to use the same email as on Steam Spy!

Playtime (2 weeks):

Access restricted.

This feature is only available to users with special access rights. Sorry.

If you want to proceed, you need to register or log in first and then back Steam Spy on Patreon. Look for Indie or Pro pledge.

Don't forget to use the same email as on Steam Spy!

User reviews:

Login required.

Please register or log in to see this information.